createdAt,value
2018-07-10T00:02:31.990Z,73.70
2018-07-10T00:07:17.269Z,73.40
2018-07-10T00:12:00.833Z,73.30
2018-07-10T00:14:28.463Z,73.10
2018-07-10T00:16:56.118Z,72.80
2018-07-10T00:19:23.786Z,72.90
2018-07-10T00:21:51.677Z,73.00
2018-07-10T00:24:19.337Z,73.10
2018-07-10T00:26:47.074Z,73.10
2018-07-10T00:29:14.818Z,73.10
2018-07-10T00:31:42.452Z,73.10
2018-07-10T00:34:10.214Z,73.20
2018-07-10T00:36:37.885Z,73.00
2018-07-10T00:39:07.773Z,73.20
2018-07-10T00:41:36.739Z,73.80
2018-07-10T00:44:05.214Z,73.50
2018-07-10T00:46:35.534Z,73.30
2018-07-10T00:49:03.312Z,73.20
2018-07-10T00:51:33.281Z,73.70
2018-07-10T00:54:01.053Z,73.90
2018-07-10T00:56:28.806Z,73.70
2018-07-10T00:58:56.590Z,73.30
2018-07-10T01:01:25.426Z,72.80
2018-07-10T01:03:53.192Z,73.00
2018-07-10T01:06:21.389Z,73.10
2018-07-10T01:08:49.116Z,73.20
2018-07-10T01:11:17.834Z,72.60
2018-07-10T01:13:46.531Z,73.10
2018-07-10T01:16:25.840Z,73.20
2018-07-10T01:18:56.066Z,73.10
2018-07-10T01:21:24.776Z,73.50
2018-07-10T01:24:01.437Z,73.80
2018-07-10T01:26:32.195Z,73.70
2018-07-10T01:30:06.229Z,72.90
2018-07-10T01:32:34.096Z,72.70
2018-07-10T01:35:01.874Z,72.40
2018-07-10T01:37:29.646Z,72.30
2018-07-10T01:39:57.368Z,72.40
2018-07-10T01:42:25.095Z,72.80
2018-07-10T01:44:52.777Z,72.70
2018-07-10T01:47:20.474Z,72.60
2018-07-10T01:49:48.162Z,73.00
2018-07-10T01:52:15.933Z,74.00
2018-07-10T01:54:43.675Z,74.20
2018-07-10T01:57:11.385Z,74.20
2018-07-10T01:59:39.114Z,73.80
2018-07-10T02:02:06.845Z,73.50
2018-07-10T02:04:34.557Z,73.50
2018-07-10T02:07:02.274Z,73.80
2018-07-10T02:09:30.037Z,74.00
2018-07-10T02:11:57.798Z,74.30
2018-07-10T02:14:25.534Z,74.50
2018-07-10T02:16:53.242Z,74.50
2018-07-10T02:19:21.496Z,74.50
2018-07-10T02:21:49.240Z,74.80
2018-07-10T02:24:20.672Z,75.30
2018-07-10T02:26:48.670Z,74.80
2018-07-10T02:29:16.431Z,75.10
2018-07-10T02:31:44.102Z,75.40
2018-07-10T02:34:11.830Z,75.40
2018-07-10T02:36:39.564Z,75.60
2018-07-10T02:39:07.294Z,75.80
2018-07-10T02:41:35.056Z,75.50
2018-07-10T02:44:04.036Z,75.90
2018-07-10T02:46:33.011Z,76.10
2018-07-10T02:49:06.776Z,76.30
2018-07-10T02:51:35.500Z,76.60
2018-07-10T02:54:03.249Z,76.30
2018-07-10T02:56:31.381Z,76.50
2018-07-10T02:59:02.099Z,76.80
2018-07-10T03:01:29.846Z,77.10
2018-07-10T03:03:58.875Z,77.20
2018-07-10T03:06:26.604Z,77.40
2018-07-10T03:08:55.087Z,77.30
2018-07-10T03:11:22.806Z,77.30
2018-07-10T03:16:18.128Z,77.80
2018-07-10T03:18:45.874Z,78.10
2018-07-10T03:21:13.598Z,78.30
2018-07-10T03:23:41.366Z,78.50
2018-07-10T03:26:09.149Z,78.40
2018-07-10T03:28:36.910Z,78.40
2018-07-10T03:31:04.545Z,78.70
2018-07-10T03:33:32.186Z,78.90
2018-07-10T03:35:59.906Z,79.00
2018-07-10T03:38:27.708Z,79.00
2018-07-10T03:40:55.452Z,79.10
2018-07-10T03:43:23.500Z,79.40
2018-07-10T03:45:51.281Z,79.30
2018-07-10T03:48:19.040Z,79.20
2018-07-10T03:50:47.072Z,79.30
2018-07-10T03:53:14.797Z,79.20
2018-07-10T03:55:42.519Z,79.30
2018-07-10T03:58:10.248Z,79.40
2018-07-10T04:00:37.990Z,79.30
2018-07-10T04:03:05.711Z,79.00
2018-07-10T04:05:33.449Z,79.40
2018-07-10T04:08:04.014Z,79.70
2018-07-10T04:10:33.631Z,79.80
2018-07-10T04:13:06.057Z,79.90
2018-07-10T04:15:33.762Z,79.80
2018-07-10T04:18:20.496Z,79.80
2018-07-10T04:21:26.037Z,79.50
2018-07-10T04:24:09.098Z,79.60
2018-07-10T04:26:39.152Z,79.50
2018-07-10T04:29:15.958Z,80.00
2018-07-10T04:31:57.834Z,79.60
2018-07-10T04:34:26.838Z,79.50
2018-07-10T04:36:58.472Z,79.70
2018-07-10T04:39:26.242Z,79.90
2018-07-10T04:41:57.952Z,79.60
2018-07-10T04:44:31.346Z,78.90
2018-07-10T04:47:16.041Z,79.00
2018-07-10T04:49:58.028Z,79.00
2018-07-10T04:52:29.173Z,79.10
2018-07-10T04:55:10.148Z,79.20
2018-07-10T04:57:47.729Z,79.10
2018-07-10T05:00:15.457Z,79.30
2018-07-10T05:02:43.243Z,79.30
2018-07-10T05:05:11.038Z,79.50
2018-07-10T05:07:38.762Z,79.50
2018-07-10T05:10:06.493Z,79.80
2018-07-10T05:12:34.302Z,79.80
2018-07-10T05:15:02.024Z,79.40
2018-07-10T05:17:29.744Z,79.50
2018-07-10T05:19:57.468Z,79.30
2018-07-10T05:22:26.510Z,79.00
2018-07-10T05:24:55.905Z,78.50
2018-07-10T05:27:23.814Z,77.90
2018-07-10T05:29:51.551Z,78.00
2018-07-10T05:32:19.298Z,78.00
2018-07-10T05:34:47.050Z,78.00
2018-07-10T05:37:24.725Z,78.20
2018-07-10T05:39:52.418Z,78.20
2018-07-10T05:42:20.162Z,77.70
2018-07-10T05:44:47.893Z,77.80
2018-07-10T05:47:15.627Z,77.20
2018-07-10T05:49:43.360Z,76.50
2018-07-10T05:52:12.246Z,76.70
2018-07-10T05:54:41.185Z,77.00
2018-07-10T05:57:08.874Z,77.50
2018-07-10T05:59:36.600Z,77.90
2018-07-10T06:02:04.332Z,77.20
2018-07-10T06:04:32.168Z,76.90
2018-07-10T06:06:59.934Z,75.50
2018-07-10T06:09:27.642Z,76.00
2018-07-10T06:11:55.297Z,74.30
2018-07-10T06:14:23.280Z,74.30
2018-07-10T06:16:51.114Z,74.20
2018-07-10T06:19:18.814Z,73.70
2018-07-10T06:21:48.038Z,73.50
2018-07-10T06:24:30.704Z,73.70
2018-07-10T06:27:04.694Z,73.90
2018-07-10T06:29:43.710Z,74.30
2018-07-10T06:32:16.606Z,73.90
2018-07-10T06:34:44.334Z,73.70
2018-07-10T06:37:14.188Z,72.90
2018-07-10T06:39:41.937Z,72.70
2018-07-10T06:42:21.326Z,72.30
2018-07-10T06:44:49.077Z,73.00
2018-07-10T06:47:28.806Z,72.00
2018-07-10T06:49:58.346Z,71.10
2018-07-10T06:52:26.166Z,71.00
2018-07-10T06:55:10.090Z,71.70
2018-07-10T06:57:46.191Z,70.40
2018-07-10T07:00:13.810Z,70.20
2018-07-10T07:02:41.533Z,70.30
2018-07-10T07:07:59.853Z,69.50
2018-07-10T07:10:27.498Z,68.70
2018-07-10T07:12:55.186Z,67.90
2018-07-10T07:15:22.868Z,68.40
2018-07-10T07:17:51.842Z,69.40
2018-07-10T07:20:20.240Z,69.50
2018-07-10T07:22:48.536Z,68.80
2018-07-10T07:25:16.234Z,69.40
2018-07-10T07:27:43.941Z,69.00
2018-07-10T07:30:11.710Z,67.90
2018-07-10T07:32:39.440Z,68.20
2018-07-10T07:35:07.162Z,67.70
2018-07-10T07:37:37.506Z,68.60
2018-07-10T07:40:05.330Z,67.50
2018-07-10T07:42:33.013Z,67.60
2018-07-10T07:45:00.770Z,68.10
2018-07-10T07:47:29.407Z,67.30
2018-07-10T07:49:57.162Z,66.50
2018-07-10T07:52:26.688Z,67.00
2018-07-10T07:54:54.619Z,68.00
2018-07-10T07:57:26.284Z,67.60
2018-07-10T07:59:54.141Z,67.40
2018-07-10T08:02:22.632Z,67.30
2018-07-10T08:04:52.711Z,68.00
2018-07-10T08:07:21.749Z,67.60
2018-07-10T08:09:50.241Z,67.50
2018-07-10T08:12:18.097Z,66.90
2018-07-10T08:14:46.067Z,66.80
2018-07-10T08:17:14.097Z,66.50
2018-07-10T08:19:42.775Z,66.80
2018-07-10T08:22:10.590Z,67.30
2018-07-10T08:24:38.369Z,66.60
2018-07-10T08:27:06.094Z,67.10
2018-07-10T08:29:33.849Z,65.80
2018-07-10T08:32:01.596Z,65.70
2018-07-10T08:34:29.834Z,66.50
2018-07-10T08:36:57.476Z,66.20
2018-07-10T08:39:25.214Z,65.70
2018-07-10T08:41:52.941Z,66.60
2018-07-10T08:44:21.100Z,65.90
2018-07-10T08:46:53.134Z,66.40
2018-07-10T08:49:22.433Z,66.50
2018-07-10T08:51:51.609Z,66.20
2018-07-10T08:54:21.541Z,64.90
2018-07-10T08:56:49.742Z,64.20
2018-07-10T09:01:46.986Z,62.80
2018-07-10T09:04:15.781Z,61.90
2018-07-10T09:06:43.492Z,62.20
2018-07-10T09:09:11.214Z,61.10
2018-07-10T09:11:39.250Z,60.20
2018-07-10T09:14:06.965Z,61.60
2018-07-10T09:16:34.637Z,60.50
2018-07-10T09:19:02.467Z,60.70
2018-07-10T09:21:30.230Z,59.40
2018-07-10T09:23:58.653Z,60.40
2018-07-10T09:26:26.834Z,60.70
2018-07-10T09:28:54.644Z,60.70
2018-07-10T09:31:22.416Z,61.90
2018-07-10T09:33:50.227Z,60.70
2018-07-10T09:36:17.958Z,60.60
2018-07-10T09:38:45.712Z,61.40
2018-07-10T09:41:14.558Z,60.20
2018-07-10T09:43:43.442Z,60.10
2018-07-10T09:46:11.196Z,59.00
2018-07-10T09:48:38.944Z,58.30
2018-07-10T09:51:06.918Z,59.10
2018-07-10T09:53:34.682Z,59.90
2018-07-10T09:56:02.482Z,57.30
2018-07-10T09:58:30.524Z,57.70
2018-07-10T10:01:03.038Z,58.50
2018-07-10T10:03:31.558Z,59.00
2018-07-10T10:05:59.346Z,57.90
2018-07-10T10:08:27.108Z,59.00
2018-07-10T10:10:54.812Z,59.10
2018-07-10T10:13:22.537Z,59.50
2018-07-10T10:15:50.221Z,60.50
2018-07-10T10:18:17.965Z,62.10
2018-07-10T10:20:45.718Z,57.80
2018-07-10T10:23:14.133Z,58.30
2018-07-10T10:25:43.397Z,57.50
2018-07-10T10:28:11.154Z,57.30
2018-07-10T10:30:39.719Z,57.60
2018-07-10T10:33:08.307Z,57.70
2018-07-10T10:35:36.126Z,57.90
2018-07-10T10:38:04.417Z,59.00
2018-07-10T10:40:34.670Z,58.70
2018-07-10T10:43:04.741Z,59.80
2018-07-10T10:45:34.926Z,60.50
2018-07-10T10:48:03.126Z,60.80
2018-07-10T10:50:30.874Z,60.60
2018-07-10T10:52:58.710Z,61.60
2018-07-10T10:55:26.482Z,62.40
2018-07-10T10:57:54.876Z,63.10
2018-07-10T11:00:22.582Z,63.20
2018-07-10T11:02:50.763Z,62.70
2018-07-10T11:05:18.515Z,63.60
2018-07-10T11:07:46.283Z,63.70
2018-07-10T11:10:14.002Z,63.70
2018-07-10T11:12:41.726Z,64.50
2018-07-10T11:15:09.491Z,64.90
2018-07-10T11:17:46.055Z,65.30
2018-07-10T11:21:24.814Z,65.10
2018-07-10T11:23:55.883Z,65.80
2018-07-10T11:26:31.594Z,66.20
2018-07-10T11:28:59.347Z,66.50
2018-07-10T11:31:27.086Z,66.90
2018-07-10T11:33:54.821Z,67.20
2018-07-10T11:36:22.543Z,67.50
2018-07-10T11:38:50.590Z,67.10
2018-07-10T11:41:18.398Z,67.90
2018-07-10T11:43:46.278Z,68.50
2018-07-10T11:46:14.002Z,68.50
2018-07-10T11:48:41.717Z,68.30
2018-07-10T11:51:09.464Z,68.30
2018-07-10T11:53:37.675Z,68.40
2018-07-10T11:56:05.448Z,67.70
2018-07-10T11:58:33.234Z,68.40
2018-07-10T12:01:01.034Z,68.50
2018-07-10T12:03:37.590Z,68.10
2018-07-10T12:06:06.070Z,68.70
2018-07-10T12:08:33.750Z,68.50
2018-07-10T12:11:14.096Z,68.90
2018-07-10T12:13:42.086Z,69.90
2018-07-10T12:16:10.204Z,68.90
2018-07-10T12:18:37.958Z,68.80
2018-07-10T12:21:06.444Z,69.60
2018-07-10T12:23:34.249Z,69.90
2018-07-10T12:26:04.658Z,69.00
2018-07-10T12:28:32.612Z,69.20
2018-07-10T12:31:01.770Z,69.20
2018-07-10T12:33:29.503Z,69.30
2018-07-10T12:35:57.290Z,69.80
2018-07-10T12:38:25.080Z,69.30
2018-07-10T12:40:52.801Z,69.90
2018-07-10T12:43:20.594Z,69.00
2018-07-10T12:45:48.471Z,70.20
2018-07-10T12:48:16.231Z,70.50
2018-07-10T12:50:44.003Z,71.40
2018-07-10T12:53:12.499Z,72.00
2018-07-10T12:55:40.263Z,72.40
2018-07-10T12:58:08.079Z,73.10
2018-07-10T13:00:37.053Z,72.60
2018-07-10T13:03:06.498Z,73.00
2018-07-10T13:06:08.282Z,72.40
2018-07-10T13:08:36.058Z,73.00
2018-07-10T13:11:03.827Z,74.00
2018-07-10T13:13:31.593Z,73.90
2018-07-10T13:15:59.302Z,75.70
2018-07-10T13:18:29.591Z,76.10
2018-07-10T13:20:57.281Z,76.90
2018-07-10T13:23:25.048Z,76.20
2018-07-10T13:25:52.743Z,76.60
2018-07-10T13:28:20.525Z,76.90
2018-07-10T13:30:48.343Z,76.50
2018-07-10T13:33:16.073Z,77.80
2018-07-10T13:35:43.873Z,78.70
2018-07-10T13:38:11.906Z,79.80
2018-07-10T13:40:39.734Z,80.00
2018-07-10T13:43:07.610Z,80.20
2018-07-10T13:45:35.321Z,79.80
2018-07-10T13:48:03.050Z,80.90
2018-07-10T13:50:32.061Z,80.00
2018-07-10T13:53:01.078Z,81.40
2018-07-10T13:55:29.546Z,82.80
2018-07-10T13:58:06.942Z,82.60
2018-07-10T14:00:41.771Z,82.50
2018-07-10T14:03:10.071Z,82.90
2018-07-10T14:05:37.934Z,84.20
2018-07-10T14:08:05.764Z,84.60
2018-07-10T14:10:33.562Z,84.20
2018-07-10T14:13:01.687Z,83.20
2018-07-10T14:15:29.485Z,83.80
2018-07-10T14:17:57.935Z,84.90
2018-07-10T14:20:25.814Z,84.20
2018-07-10T14:22:53.569Z,85.70
2018-07-10T14:25:21.388Z,85.50
2018-07-10T14:27:49.166Z,85.00
2018-07-10T14:30:16.941Z,85.20
2018-07-10T14:32:44.678Z,85.30
2018-07-10T14:35:12.440Z,84.80
2018-07-10T14:37:40.194Z,85.00
2018-07-10T14:40:07.918Z,84.70
2018-07-10T14:42:36.365Z,84.20
2018-07-10T14:45:05.477Z,84.70
2018-07-10T14:47:33.362Z,84.80
2018-07-10T14:50:02.229Z,84.80
2018-07-10T14:52:29.998Z,84.50
2018-07-10T14:54:57.738Z,85.00
2018-07-10T14:57:25.670Z,84.10
2018-07-10T14:59:55.443Z,85.00
2018-07-10T15:02:23.198Z,85.20
2018-07-10T15:04:50.893Z,84.10
2018-07-10T15:07:19.318Z,84.70
2018-07-10T15:09:46.983Z,85.60
2018-07-10T15:12:14.714Z,84.90
2018-07-10T15:14:42.397Z,84.10
2018-07-10T15:17:15.778Z,84.20
2018-07-10T15:19:43.404Z,84.80
2018-07-10T15:22:11.025Z,83.70
2018-07-10T15:24:38.761Z,82.60
2018-07-10T15:27:06.522Z,84.10
2018-07-10T15:29:34.270Z,85.20
2018-07-10T15:32:02.023Z,84.70
2018-07-10T15:34:29.826Z,84.50
2018-07-10T15:36:57.532Z,85.20
2018-07-10T15:39:25.294Z,84.90
2018-07-10T15:41:53.570Z,84.30
2018-07-10T15:44:21.231Z,83.30
2018-07-10T15:46:49.332Z,82.80
2018-07-10T15:49:17.245Z,82.00
2018-07-10T15:51:45.580Z,82.70
2018-07-10T15:54:13.384Z,83.30
2018-07-10T15:56:41.155Z,82.50
2018-07-10T15:59:09.018Z,81.80
2018-07-10T16:01:36.799Z,82.30
2018-07-10T16:04:04.564Z,82.50
2018-07-10T16:06:33.476Z,82.90
2018-07-10T16:09:08.202Z,83.70
2018-07-10T16:11:36.458Z,84.00
2018-07-10T16:14:04.198Z,83.90
2018-07-10T16:16:31.955Z,83.00
2018-07-10T16:19:07.525Z,82.60
2018-07-10T16:22:17.968Z,83.30
2018-07-10T16:24:48.314Z,84.00
2018-07-10T16:27:19.734Z,84.10
2018-07-10T16:29:47.722Z,84.20
2018-07-10T16:32:15.826Z,84.30
2018-07-10T16:34:43.562Z,83.70
2018-07-10T16:37:11.389Z,83.30
2018-07-10T16:39:39.225Z,84.10
2018-07-10T16:42:12.551Z,84.60
2018-07-10T16:44:42.045Z,84.10
2018-07-10T16:47:28.839Z,84.30
2018-07-10T16:50:00.990Z,84.60
2018-07-10T16:52:37.166Z,84.60
2018-07-10T16:55:04.911Z,84.10
2018-07-10T16:57:32.757Z,84.00
2018-07-10T17:00:00.626Z,84.50
2018-07-10T17:02:28.738Z,84.50
2018-07-10T17:04:57.594Z,84.80
2018-07-10T17:07:25.284Z,84.90
2018-07-10T17:09:53.051Z,84.80
2018-07-10T17:12:20.794Z,85.10
2018-07-10T17:15:00.537Z,84.90
2018-07-10T17:17:28.865Z,85.10
2018-07-10T17:19:56.842Z,86.00
2018-07-10T17:22:24.942Z,86.60
2018-07-10T17:24:53.729Z,86.50
2018-07-10T17:27:32.102Z,86.60
2018-07-10T17:30:00.846Z,87.10
2018-07-10T17:32:28.669Z,86.80
2018-07-10T17:34:56.550Z,87.40
2018-07-10T17:39:52.031Z,87.10
2018-07-10T17:42:19.791Z,87.90
2018-07-10T17:44:47.880Z,87.50
2018-07-10T17:47:15.911Z,87.60
2018-07-10T17:49:44.119Z,88.00
2018-07-10T17:52:11.771Z,88.00
2018-07-10T17:54:39.503Z,87.90
2018-07-10T17:57:07.275Z,88.20
2018-07-10T17:59:35.036Z,88.00
2018-07-10T18:02:02.785Z,88.10
2018-07-10T18:04:30.547Z,88.50
2018-07-10T18:06:58.924Z,88.30
2018-07-10T18:09:26.678Z,88.20
2018-07-10T18:11:54.474Z,88.60
2018-07-10T18:14:22.222Z,88.20
2018-07-10T18:16:49.908Z,88.80
2018-07-10T18:19:17.674Z,88.30
2018-07-10T18:21:45.387Z,87.90
2018-07-10T18:24:13.179Z,88.10
2018-07-10T18:26:40.879Z,88.00
2018-07-10T18:29:08.641Z,87.80
2018-07-10T18:31:36.345Z,87.60
2018-07-10T18:34:04.154Z,87.70
2018-07-10T18:36:31.920Z,87.80
2018-07-10T18:38:59.720Z,88.00
2018-07-10T18:41:27.458Z,87.90
2018-07-10T18:43:55.263Z,87.80
2018-07-10T18:46:23.003Z,87.80
2018-07-10T18:48:50.778Z,88.10
2018-07-10T18:51:19.055Z,88.50
2018-07-10T18:53:47.017Z,88.20
2018-07-10T18:56:14.770Z,88.10
2018-07-10T18:58:50.431Z,88.40
2018-07-10T19:01:21.946Z,88.60
2018-07-10T19:03:49.712Z,89.00
2018-07-10T19:06:20.835Z,89.40
2018-07-10T19:08:48.637Z,89.40
2018-07-10T19:11:26.493Z,89.60
2018-07-10T19:13:54.884Z,89.40
2018-07-10T19:16:23.575Z,89.30
2018-07-10T19:18:51.962Z,89.50
2018-07-10T19:21:30.766Z,89.80
2018-07-10T19:23:59.810Z,89.50
2018-07-10T19:26:28.992Z,89.10
2018-07-10T19:30:03.227Z,89.00
2018-07-10T19:32:31.486Z,88.90
2018-07-10T19:35:00.158Z,88.80
2018-07-10T19:37:30.630Z,89.00
2018-07-10T19:39:58.419Z,88.80
2018-07-10T19:42:27.172Z,89.30
2018-07-10T19:44:55.293Z,90.10
2018-07-10T19:47:24.734Z,90.00
2018-07-10T19:49:53.751Z,90.00
2018-07-10T19:52:22.561Z,90.20
2018-07-10T19:57:29.659Z,90.60
2018-07-10T19:59:57.981Z,90.60
2018-07-10T20:02:25.967Z,90.40
2018-07-10T20:04:59.704Z,90.60
2018-07-10T20:07:31.467Z,89.90
2018-07-10T20:10:01.754Z,90.10
2018-07-10T20:12:42.419Z,90.40
2018-07-10T20:15:36.135Z,90.70
2018-07-10T20:18:19.270Z,90.90
2018-07-10T20:20:58.598Z,90.60
2018-07-10T20:23:37.056Z,90.70
2018-07-10T20:26:16.670Z,90.70
2018-07-10T20:28:50.624Z,91.00
2018-07-10T20:31:31.974Z,91.00
2018-07-10T20:34:10.866Z,91.00
2018-07-10T20:36:42.586Z,91.00
2018-07-10T20:39:11.218Z,91.10
2018-07-10T20:41:45.302Z,91.30
2018-07-10T20:44:16.278Z,91.10
2018-07-10T20:46:48.524Z,91.10
2018-07-10T20:51:57.445Z,91.10
2018-07-10T20:55:03.562Z,91.00
2018-07-10T20:57:36.262Z,90.50
2018-07-10T21:00:08.958Z,90.40
2018-07-10T21:04:55.542Z,90.40
2018-07-10T21:07:28.322Z,90.50
2018-07-10T21:10:30.608Z,90.00
2018-07-10T21:13:06.980Z,90.00
2018-07-10T21:15:50.103Z,90.10
2018-07-10T21:18:34.018Z,90.30
2018-07-10T21:21:12.210Z,90.40
2018-07-10T21:23:53.088Z,90.10
2018-07-10T21:26:36.383Z,90.10
2018-07-10T21:29:14.564Z,90.30
2018-07-10T21:32:20.357Z,90.40
2018-07-10T21:34:49.401Z,90.50
2018-07-10T21:40:02.742Z,90.20
2018-07-10T21:42:41.778Z,90.30
2018-07-10T21:45:19.218Z,90.40
2018-07-10T21:47:55.849Z,90.60
2018-07-10T21:52:53.351Z,90.20
2018-07-10T21:55:21.070Z,90.80
2018-07-10T21:57:48.937Z,90.80
2018-07-10T22:00:16.666Z,91.00
2018-07-10T22:02:44.632Z,90.60
2018-07-10T22:05:12.395Z,91.10
2018-07-10T22:07:40.902Z,90.80
2018-07-10T22:10:08.708Z,90.80
2018-07-10T22:12:45.930Z,90.40
2018-07-10T22:15:13.722Z,90.40
2018-07-10T22:17:42.848Z,90.70
2018-07-10T22:20:10.611Z,91.10
2018-07-10T22:22:38.382Z,91.10
2018-07-10T22:25:07.512Z,90.80
2018-07-10T22:27:38.950Z,90.30
2018-07-10T22:30:12.780Z,90.30
2018-07-10T22:32:46.012Z,90.70
2018-07-10T22:35:15.058Z,90.40
2018-07-10T22:37:42.805Z,90.50
2018-07-10T22:40:10.505Z,90.00
2018-07-10T22:42:38.262Z,90.50
2018-07-10T22:45:06.007Z,90.30
2018-07-10T22:47:38.853Z,90.70
2018-07-10T22:50:08.041Z,90.70
2018-07-10T22:52:43.536Z,90.90
2018-07-10T22:55:13.432Z,90.30
2018-07-10T22:57:41.199Z,90.30
2018-07-10T23:00:09.399Z,90.60
2018-07-10T23:02:37.149Z,90.80
2018-07-10T23:05:04.866Z,91.00
2018-07-10T23:07:32.533Z,91.00
2018-07-10T23:10:00.287Z,91.00
2018-07-10T23:12:28.034Z,91.20
2018-07-10T23:14:55.799Z,91.90
2018-07-10T23:17:23.529Z,91.80
2018-07-10T23:19:51.240Z,91.90
2018-07-10T23:22:19.004Z,92.00
2018-07-10T23:24:46.742Z,91.90
2018-07-10T23:27:14.489Z,92.10
2018-07-10T23:29:42.240Z,91.90
2018-07-10T23:32:09.993Z,91.60
2018-07-10T23:34:37.748Z,91.70
2018-07-10T23:37:10.694Z,92.20
2018-07-10T23:39:48.884Z,91.70
2018-07-10T23:44:47.289Z,91.80
2018-07-10T23:47:33.879Z,91.70
2018-07-10T23:50:13.321Z,91.60
2018-07-10T23:52:51.285Z,91.50
2018-07-10T23:55:19.046Z,91.60
2018-07-10T23:57:46.872Z,91.20
